Time;durP1;ratioP1;P1;durP2;ratioP2;P2;SDS_P1;SDS_P2;PMS_P1;PMS_P2;Temp;Humidity;BMP_temperature;BMP_pressure;BME280_temperature;BME280_humidity;BME280_pressure;Samples;Min_cycle;Max_cycle;Signal;HPM_P1;HPM_P2
2022/01/15 00:00:20;;;;;;;4.95;2.00;;;;;;;;;;4413250;32;20042;-53
2022/01/15 00:02:48;;;;;;;6.12;1.75;;;;;;;;;;4408764;32;20093;-50
2022/01/15 00:05:17;;;;;;;4.28;1.70;;;;;;;;;;4406020;32;20026;-53
2022/01/15 00:07:47;;;;;;;8.88;2.17;;;;;;;;;;4412873;32;20096;-49
2022/01/15 00:10:18;;;;;;;6.50;1.77;;;;;;;;;;4415659;32;20085;-52
2022/01/15 00:12:48;;;;;;;3.72;1.40;;;;;;;;;;4408149;32;20150;-52
2022/01/15 00:15:23;;;;;;;5.05;1.50;;;;;;;;;;4405963;32;20641;-53
2022/01/15 00:18:00;;;;;;;4.43;1.67;;;;;;;;;;4403634;32;20031;-51
2022/01/15 00:20:29;;;;;;;7.75;1.58;;;;;;;;;;4409358;32;20042;-52
2022/01/15 00:22:59;;;;;;;6.85;1.83;;;;;;;;;;4407082;32;20068;-52
2022/01/15 00:25:28;;;;;;;7.55;1.67;;;;;;;;;;4415404;32;20045;-53
2022/01/15 00:27:56;;;;;;;6.93;1.55;;;;;;;;;;4406090;32;20085;-52
2022/01/15 00:30:25;;;;;;;7.05;1.58;;;;;;;;;;4406943;32;20050;-52
2022/01/15 00:32:54;;;;;;;9.35;1.83;;;;;;;;;;4409351;32;20034;-53
2022/01/15 00:35:23;;;;;;;5.15;1.75;;;;;;;;;;4412882;32;20034;-53
2022/01/15 00:37:52;;;;;;;6.80;2.00;;;;;;;;;;4410682;32;20053;-49
2022/01/15 00:40:21;;;;;;;7.22;1.80;;;;;;;;;;4400049;32;20051;-52
2022/01/15 00:42:49;;;;;;;5.50;1.10;;;;;;;;;;4413344;32;20080;-52
2022/01/15 00:45:21;;;;;;;4.90;1.77;;;;;;;;;;4413345;32;20522;-53
2022/01/15 00:47:51;;;;;;;5.62;1.50;;;;;;;;;;4412640;32;20084;-50
2022/01/15 00:50:20;;;;;;;6.15;1.80;;;;;;;;;;4410321;32;20054;-51
2022/01/15 00:52:49;;;;;;;6.78;1.48;;;;;;;;;;4415681;32;20381;-52
2022/01/15 00:55:18;;;;;;;4.70;1.87;;;;;;;;;;4411414;32;20160;-52
2022/01/15 00:57:47;;;;;;;5.87;1.45;;;;;;;;;;4414598;32;20480;-53
2022/01/15 01:00:21;;;;;;;7.50;1.70;;;;;;;;;;4407311;32;20019;-53
2022/01/15 01:02:50;;;;;;;4.45;1.27;;;;;;;;;;4413759;32;20400;-50
2022/01/15 01:05:20;;;;;;;5.00;1.40;;;;;;;;;;4403659;32;20362;-53
2022/01/15 01:07:48;;;;;;;6.35;1.60;;;;;;;;;;4403605;32;20056;-52
2022/01/15 01:23:38;;;;;;;4.28;1.30;;;;;;;;;;4405897;32;20040;-53
2022/01/15 01:26:23;;;;;;;6.40;1.80;;;;;;;;;;4404048;32;20377;-51
2022/01/15 01:29:07;;;;;;;4.25;1.20;;;;;;;;;;4406982;32;20131;-52
2022/01/15 01:31:50;;;;;;;7.40;1.40;;;;;;;;;;4415043;32;20195;-51
2022/01/15 01:34:18;;;;;;;4.28;1.30;;;;;;;;;;4415134;32;20050;-50
2022/01/15 01:37:13;;;;;;;4.00;1.45;;;;;;;;;;4405012;32;20069;-53
2022/01/15 01:39:46;;;;;;;3.93;1.47;;;;;;;;;;4407582;32;20055;-49
2022/01/15 01:45:09;;;;;;;5.47;1.65;;;;;;;;;;4407386;32;20148;-50
2022/01/15 01:47:41;;;;;;;7.20;1.30;;;;;;;;;;4410598;32;20043;-53
2022/01/15 01:50:12;;;;;;;6.00;1.00;;;;;;;;;;4412875;32;20065;-52
2022/01/15 01:52:42;;;;;;;5.12;1.23;;;;;;;;;;4410620;32;20117;-53
2022/01/15 01:55:10;;;;;;;7.30;1.55;;;;;;;;;;4410945;32;20066;-50
2022/01/15 01:57:39;;;;;;;5.40;1.17;;;;;;;;;;4424287;32;20083;-50
2022/01/15 02:00:09;;;;;;;4.12;1.23;;;;;;;;;;4413067;32;20038;-49
2022/01/15 02:02:43;;;;;;;3.70;1.00;;;;;;;;;;4424578;32;20056;-53
2022/01/15 02:05:12;;;;;;;4.95;1.40;;;;;;;;;;4424176;32;20073;-50
2022/01/15 02:07:43;;;;;;;3.92;1.08;;;;;;;;;;4423092;32;20061;-49
2022/01/15 02:10:13;;;;;;;6.90;1.67;;;;;;;;;;4424729;32;20042;-51
2022/01/15 02:12:42;;;;;;;5.15;1.55;;;;;;;;;;4424918;32;20038;-51
2022/01/15 02:15:15;;;;;;;3.75;1.27;;;;;;;;;;4424570;32;20349;-50
2022/01/15 02:17:45;;;;;;;4.40;1.65;;;;;;;;;;4424586;32;20088;-49
2022/01/15 02:25:45;;;;;;;4.72;1.42;;;;;;;;;;4423388;32;20038;-50
2022/01/15 02:28:14;;;;;;;4.25;1.10;;;;;;;;;;4424494;32;20084;-51
2022/01/15 02:30:42;;;;;;;4.57;1.42;;;;;;;;;;4424345;32;20384;-52
2022/01/15 02:33:11;;;;;;;4.15;1.37;;;;;;;;;;4423770;32;20038;-50
2022/01/15 02:35:39;;;;;;;4.57;1.35;;;;;;;;;;4424232;32;20057;-51
2022/01/15 02:38:09;;;;;;;4.82;1.27;;;;;;;;;;4421855;32;20026;-50
2022/01/15 02:40:37;;;;;;;5.10;1.33;;;;;;;;;;4423376;32;20074;-49
2022/01/15 02:43:07;;;;;;;2.15;0.90;;;;;;;;;;4420546;32;20058;-49
2022/01/15 02:45:37;;;;;;;3.62;1.10;;;;;;;;;;4424322;32;20094;-49
2022/01/15 02:48:16;;;;;;;2.72;1.12;;;;;;;;;;4424405;32;20112;-50
2022/01/15 02:50:45;;;;;;;3.58;1.33;;;;;;;;;;4424150;32;20026;-50
2022/01/15 02:53:18;;;;;;;4.93;1.20;;;;;;;;;;4422647;32;20070;-49
2022/01/15 02:55:51;;;;;;;3.03;1.10;;;;;;;;;;4424228;32;20038;-49
2022/01/15 02:58:21;;;;;;;4.72;1.10;;;;;;;;;;4421284;32;20057;-51
2022/01/15 03:00:51;;;;;;;3.45;1.00;;;;;;;;;;4423907;32;20102;-51
2022/01/15 03:03:20;;;;;;;4.80;1.25;;;;;;;;;;4423892;32;20053;-52
2022/01/15 03:05:48;;;;;;;4.97;1.30;;;;;;;;;;4422533;32;20079;-49
2022/01/15 03:08:16;;;;;;;3.00;1.08;;;;;;;;;;4410215;32;20176;-51
2022/01/15 03:10:45;;;;;;;2.95;1.00;;;;;;;;;;4413289;32;20057;-50
2022/01/15 03:13:14;;;;;;;4.43;1.10;;;;;;;;;;4408078;32;20377;-50
2022/01/15 03:15:43;;;;;;;3.20;0.93;;;;;;;;;;4408612;32;20026;-50
2022/01/15 03:18:11;;;;;;;3.22;0.93;;;;;;;;;;4410862;32;20108;-49
2022/01/15 03:20:39;;;;;;;4.28;1.10;;;;;;;;;;4405858;32;20047;-49
2022/01/15 03:23:08;;;;;;;3.17;1.10;;;;;;;;;;4410611;32;20109;-51
2022/01/15 03:25:36;;;;;;;3.47;1.48;;;;;;;;;;4404692;32;20048;-50
2022/01/15 03:28:04;;;;;;;2.75;1.08;;;;;;;;;;4415557;32;20054;-50
2022/01/15 03:30:33;;;;;;;4.03;0.90;;;;;;;;;;4415499;32;20038;-51
2022/01/15 03:33:01;;;;;;;3.50;1.00;;;;;;;;;;4411564;32;20050;-50
2022/01/15 03:35:30;;;;;;;7.47;1.35;;;;;;;;;;4405126;32;20042;-49
2022/01/15 03:37:58;;;;;;;4.37;1.27;;;;;;;;;;4405515;32;20414;-49
2022/01/15 03:40:27;;;;;;;3.47;1.20;;;;;;;;;;4403009;32;20064;-52
2022/01/15 03:42:55;;;;;;;4.12;1.10;;;;;;;;;;4407201;32;20031;-53
2022/01/15 03:45:23;;;;;;;4.90;1.10;;;;;;;;;;4411106;32;20111;-50
2022/01/15 03:47:52;;;;;;;4.40;1.08;;;;;;;;;;4405873;32;20062;-52
2022/01/15 03:50:20;;;;;;;3.12;1.02;;;;;;;;;;4404535;32;20038;-53
2022/01/15 03:52:48;;;;;;;3.60;0.98;;;;;;;;;;4402435;32;20050;-53
2022/01/15 03:55:17;;;;;;;6.25;1.23;;;;;;;;;;4414511;32;20131;-49
2022/01/15 03:57:45;;;;;;;4.55;1.20;;;;;;;;;;4409205;32;20102;-49
2022/01/15 04:00:16;;;;;;;4.75;1.12;;;;;;;;;;4403526;32;20328;-50
2022/01/15 04:02:47;;;;;;;3.00;1.23;;;;;;;;;;4411804;32;20042;-49
2022/01/15 04:05:16;;;;;;;5.62;1.00;;;;;;;;;;4413513;32;20034;-51
2022/01/15 04:07:44;;;;;;;4.65;0.95;;;;;;;;;;4411560;32;20045;-52
2022/01/15 04:10:15;;;;;;;8.18;1.75;;;;;;;;;;4404133;32;20039;-50
2022/01/15 04:12:44;;;;;;;5.18;1.30;;;;;;;;;;4409060;32;20323;-50
2022/01/15 04:15:13;;;;;;;4.43;1.27;;;;;;;;;;4413175;32;20451;-50
2022/01/15 04:17:46;;;;;;;3.17;0.85;;;;;;;;;;4407811;32;20053;-49
2022/01/15 04:20:18;;;;;;;3.45;0.95;;;;;;;;;;4404019;32;20077;-50
2022/01/15 04:22:47;;;;;;;1.87;0.98;;;;;;;;;;4410252;32;20056;-51
2022/01/15 04:25:15;;;;;;;5.87;1.20;;;;;;;;;;4405132;32;20046;-50
2022/01/15 04:27:44;;;;;;;2.62;0.95;;;;;;;;;;4408808;32;20034;-51
2022/01/15 04:30:14;;;;;;;4.62;1.27;;;;;;;;;;4406680;32;20042;-52
2022/01/15 04:32:42;;;;;;;2.80;0.90;;;;;;;;;;4417045;32;20072;-49
2022/01/15 04:35:12;;;;;;;2.83;1.08;;;;;;;;;;4412639;32;20404;-52
2022/01/15 04:37:45;;;;;;;3.35;1.17;;;;;;;;;;4411307;32;20077;-50
2022/01/15 04:40:14;;;;;;;4.82;1.25;;;;;;;;;;4406483;32;20385;-52
2022/01/15 04:42:43;;;;;;;4.22;0.90;;;;;;;;;;4409418;32;20083;-50
2022/01/15 04:45:12;;;;;;;8.13;1.23;;;;;;;;;;4414065;32;20045;-52
2022/01/15 04:47:41;;;;;;;4.22;0.95;;;;;;;;;;4412655;32;20099;-49
2022/01/15 04:50:11;;;;;;;7.15;1.40;;;;;;;;;;4410677;32;20034;-50
2022/01/15 04:52:40;;;;;;;3.17;0.93;;;;;;;;;;4408246;32;20067;-52
2022/01/15 04:55:10;;;;;;;5.20;1.23;;;;;;;;;;4410074;32;20057;-53
2022/01/15 04:57:39;;;;;;;5.05;1.17;;;;;;;;;;4413107;32;20145;-51
2022/01/15 05:00:09;;;;;;;4.45;1.30;;;;;;;;;;4411855;32;20065;-50
2022/01/15 05:02:38;;;;;;;5.25;1.20;;;;;;;;;;4409461;32;20441;-50
2022/01/15 05:05:06;;;;;;;6.05;1.23;;;;;;;;;;4406654;32;20082;-50
2022/01/15 05:07:35;;;;;;;3.53;1.00;;;;;;;;;;4410246;32;20384;-49
2022/01/15 05:10:05;;;;;;;3.70;1.12;;;;;;;;;;4416815;32;20053;-50
2022/01/15 05:12:42;;;;;;;5.70;0.90;;;;;;;;;;4410339;32;20050;-50
2022/01/15 05:15:12;;;;;;;2.15;0.93;;;;;;;;;;4410384;32;20414;-50
2022/01/15 05:17:41;;;;;;;4.95;1.33;;;;;;;;;;4410310;32;20050;-50
2022/01/15 05:20:10;;;;;;;5.05;1.20;;;;;;;;;;4414705;32;20330;-50
2022/01/15 05:22:39;;;;;;;2.80;0.90;;;;;;;;;;4403561;32;20123;-50
2022/01/15 05:25:07;;;;;;;2.80;0.85;;;;;;;;;;4414872;32;20046;-52
2022/01/15 05:27:42;;;;;;;3.83;1.10;;;;;;;;;;4407476;32;20471;-49
2022/01/15 05:30:10;;;;;;;4.47;0.93;;;;;;;;;;4416411;32;20152;-50
2022/01/15 05:32:39;;;;;;;3.87;1.00;;;;;;;;;;4411380;32;20057;-50
2022/01/15 05:35:08;;;;;;;4.20;1.00;;;;;;;;;;4410499;32;20170;-50
2022/01/15 05:37:36;;;;;;;4.10;1.12;;;;;;;;;;4412549;32;20049;-50
2022/01/15 05:40:05;;;;;;;2.78;1.08;;;;;;;;;;4403205;32;20064;-49
2022/01/15 05:42:34;;;;;;;5.32;0.98;;;;;;;;;;4408270;32;20026;-50
2022/01/15 05:45:03;;;;;;;4.18;1.10;;;;;;;;;;4409426;32;20430;-49
2022/01/15 05:47:31;;;;;;;3.92;1.10;;;;;;;;;;4415769;32;20095;-49
2022/01/15 05:50:00;;;;;;;2.95;0.93;;;;;;;;;;4413864;32;20041;-51
2022/01/15 05:52:29;;;;;;;4.75;0.80;;;;;;;;;;4405915;32;20357;-51
2022/01/15 05:54:57;;;;;;;4.82;0.90;;;;;;;;;;4412666;32;20046;-50
2022/01/15 05:57:25;;;;;;;4.15;0.85;;;;;;;;;;4405950;32;20441;-50
2022/01/15 05:59:54;;;;;;;3.35;0.80;;;;;;;;;;4408238;32;20062;-50
2022/01/15 06:02:22;;;;;;;4.00;1.00;;;;;;;;;;4412862;32;20043;-49
2022/01/15 06:04:51;;;;;;;4.82;1.00;;;;;;;;;;4415386;32;20098;-51
2022/01/15 06:07:19;;;;;;;2.35;0.82;;;;;;;;;;4406848;32;20433;-50
2022/01/15 06:09:48;;;;;;;3.30;1.02;;;;;;;;;;4417326;32;20162;-50
2022/01/15 06:12:17;;;;;;;3.42;1.08;;;;;;;;;;4405676;32;20494;-50
2022/01/15 06:14:45;;;;;;;4.00;0.80;;;;;;;;;;4414002;32;20094;-52
2022/01/15 06:17:13;;;;;;;3.60;0.80;;;;;;;;;;4413561;32;20049;-49
2022/01/15 06:19:42;;;;;;;5.45;1.10;;;;;;;;;;4412057;32;20061;-49
2022/01/15 06:22:11;;;;;;;3.83;0.90;;;;;;;;;;4412605;32;20417;-49
2022/01/15 06:24:40;;;;;;;3.10;0.82;;;;;;;;;;4412444;32;20057;-50
2022/01/15 06:27:11;;;;;;;4.32;0.88;;;;;;;;;;4404373;32;20443;-51
2022/01/15 06:29:40;;;;;;;3.35;0.98;;;;;;;;;;4414557;32;20053;-51
2022/01/15 06:32:08;;;;;;;2.65;0.80;;;;;;;;;;4411017;32;20137;-50
2022/01/15 06:34:37;;;;;;;3.37;1.02;;;;;;;;;;4417108;32;20456;-50
2022/01/15 06:37:06;;;;;;;3.12;1.00;;;;;;;;;;4409135;32;20070;-49
2022/01/15 06:39:35;;;;;;;2.78;0.80;;;;;;;;;;4411249;32;20365;-49
2022/01/15 06:42:03;;;;;;;2.40;0.90;;;;;;;;;;4408434;32;20035;-49
2022/01/15 06:44:32;;;;;;;6.12;1.10;;;;;;;;;;4409595;32;20350;-49
2022/01/15 06:47:00;;;;;;;3.50;1.02;;;;;;;;;;4409402;32;20041;-49
2022/01/15 06:49:28;;;;;;;4.60;1.10;;;;;;;;;;4419733;32;20111;-49
2022/01/15 06:51:56;;;;;;;2.35;0.77;;;;;;;;;;4411685;32;20409;-50
2022/01/15 06:54:25;;;;;;;3.05;1.00;;;;;;;;;;4408521;32;20053;-52
2022/01/15 06:56:53;;;;;;;4.05;1.00;;;;;;;;;;4406616;32;20460;-50
2022/01/15 06:59:22;;;;;;;4.07;1.10;;;;;;;;;;4403464;32;20084;-51
2022/01/15 07:01:51;;;;;;;3.50;1.10;;;;;;;;;;4410387;32;20031;-51
2022/01/15 07:04:20;;;;;;;4.03;0.98;;;;;;;;;;4411630;32;20061;-51
2022/01/15 07:06:48;;;;;;;4.85;1.00;;;;;;;;;;4404384;32;20157;-51
2022/01/15 07:09:16;;;;;;;3.17;0.90;;;;;;;;;;4406641;32;20396;-51
2022/01/15 07:11:45;;;;;;;3.78;1.00;;;;;;;;;;4414326;32;20069;-50
2022/01/15 07:14:13;;;;;;;3.75;0.93;;;;;;;;;;4409091;32;20034;-50
2022/01/15 07:16:41;;;;;;;6.43;1.10;;;;;;;;;;4410172;32;20038;-49
2022/01/15 07:19:10;;;;;;;2.53;0.73;;;;;;;;;;4402569;32;20065;-50
2022/01/15 07:21:38;;;;;;;2.12;1.00;;;;;;;;;;4412214;32;20111;-51
2022/01/15 07:24:07;;;;;;;5.00;1.00;;;;;;;;;;4407287;32;20073;-50
2022/01/15 07:26:36;;;;;;;2.87;1.10;;;;;;;;;;4413462;32;20077;-50
2022/01/15 07:29:07;;;;;;;4.45;1.12;;;;;;;;;;4416718;32;20421;-50
2022/01/15 07:31:35;;;;;;;3.78;0.93;;;;;;;;;;4408630;32;20054;-52
2022/01/15 07:34:03;;;;;;;3.87;0.77;;;;;;;;;;4410200;32;20038;-50
2022/01/15 07:36:32;;;;;;;4.47;0.90;;;;;;;;;;4407121;32;20393;-49
2022/01/15 07:39:01;;;;;;;3.47;0.90;;;;;;;;;;4412300;32;20049;-53
2022/01/15 07:41:29;;;;;;;4.12;1.00;;;;;;;;;;4412110;32;20072;-51
2022/01/15 07:43:58;;;;;;;3.50;0.80;;;;;;;;;;4408914;32;20081;-52
2022/01/15 07:46:27;;;;;;;3.67;1.10;;;;;;;;;;4418329;32;20070;-49
2022/01/15 07:48:56;;;;;;;4.10;1.10;;;;;;;;;;4412063;32;20057;-52
2022/01/15 07:51:24;;;;;;;4.07;0.98;;;;;;;;;;4414376;32;20099;-51
2022/01/15 07:53:52;;;;;;;4.03;0.90;;;;;;;;;;4410291;32;20429;-49
2022/01/15 07:56:21;;;;;;;3.90;1.00;;;;;;;;;;4413038;32;20454;-52
2022/01/15 07:58:49;;;;;;;2.85;0.90;;;;;;;;;;4412701;32;20034;-50
2022/01/15 08:01:18;;;;;;;4.03;1.02;;;;;;;;;;4403632;32;20115;-50
2022/01/15 08:03:48;;;;;;;4.75;1.10;;;;;;;;;;4405911;32;20031;-52
2022/01/15 08:06:17;;;;;;;3.55;1.00;;;;;;;;;;4409515;32;20038;-50
2022/01/15 08:08:45;;;;;;;3.42;0.90;;;;;;;;;;4409432;32;20030;-51
2022/01/15 08:11:14;;;;;;;3.22;0.85;;;;;;;;;;4405544;32;20035;-52
2022/01/15 08:13:42;;;;;;;3.33;0.80;;;;;;;;;;4414706;32;20100;-50
2022/01/15 08:16:11;;;;;;;3.53;1.10;;;;;;;;;;4417096;32;20091;-49
2022/01/15 08:18:40;;;;;;;5.55;1.20;;;;;;;;;;4409054;32;20026;-51
2022/01/15 08:21:08;;;;;;;6.22;0.98;;;;;;;;;;4409748;32;20393;-50
2022/01/15 08:23:38;;;;;;;3.25;0.80;;;;;;;;;;4402782;32;20034;-52
2022/01/15 08:26:06;;;;;;;5.68;1.05;;;;;;;;;;4410672;32;20432;-50
2022/01/15 08:28:37;;;;;;;3.12;1.00;;;;;;;;;;4407895;32;20050;-49
2022/01/15 08:31:06;;;;;;;3.75;1.00;;;;;;;;;;4404244;32;20088;-52
2022/01/15 08:33:35;;;;;;;4.90;1.20;;;;;;;;;;4415047;32;20095;-50
2022/01/15 08:36:03;;;;;;;6.45;0.80;;;;;;;;;;4412582;32;20030;-50
2022/01/15 08:38:32;;;;;;;4.75;0.70;;;;;;;;;;4404323;32;20060;-50
2022/01/15 08:41:20;;;;;;;3.42;0.80;;;;;;;;;;4405571;32;20099;-49
2022/01/15 08:43:49;;;;;;;5.68;0.70;;;;;;;;;;4412758;32;20049;-51
2022/01/15 08:46:19;;;;;;;2.22;0.82;;;;;;;;;;4415310;32;20165;-51
2022/01/15 08:48:48;;;;;;;5.05;0.80;;;;;;;;;;4407128;32;20198;-49
2022/01/15 08:51:16;;;;;;;2.65;0.95;;;;;;;;;;4412496;32;20053;-50
2022/01/15 08:53:45;;;;;;;3.65;0.80;;;;;;;;;;4405468;32;20395;-49
2022/01/15 08:56:13;;;;;;;2.25;1.08;;;;;;;;;;4413062;32;20054;-51
2022/01/15 08:58:42;;;;;;;4.65;0.95;;;;;;;;;;4413678;32;20110;-52
2022/01/15 09:01:13;;;;;;;4.97;1.02;;;;;;;;;;4404700;32;20039;-50
2022/01/15 09:03:43;;;;;;;3.87;0.95;;;;;;;;;;4415196;32;20073;-49
2022/01/15 09:06:12;;;;;;;2.87;0.82;;;;;;;;;;4409307;32;20932;-50
2022/01/15 09:08:42;;;;;;;4.72;0.90;;;;;;;;;;4398081;32;20193;-50
2022/01/15 09:11:10;;;;;;;5.28;1.02;;;;;;;;;;4417236;32;20051;-50
2022/01/15 09:13:40;;;;;;;4.07;0.82;;;;;;;;;;4408691;32;20137;-50
2022/01/15 09:16:08;;;;;;;2.62;0.85;;;;;;;;;;4409017;32;20419;-50
2022/01/15 09:18:38;;;;;;;6.87;0.90;;;;;;;;;;4412590;32;20054;-49
2022/01/15 09:21:06;;;;;;;3.05;1.00;;;;;;;;;;4401983;32;20054;-50
2022/01/15 09:23:34;;;;;;;4.90;1.00;;;;;;;;;;4406543;32;20101;-50
2022/01/15 09:26:08;;;;;;;5.12;0.82;;;;;;;;;;4408199;32;20057;-51
2022/01/15 09:31:23;;;;;;;2.25;1.00;;;;;;;;;;4408802;32;20104;-51
2022/01/15 09:33:51;;;;;;;3.53;0.77;;;;;;;;;;4407022;32;20064;-51
2022/01/15 09:36:20;;;;;;;5.47;0.90;;;;;;;;;;4408610;32;20056;-50
2022/01/15 09:38:48;;;;;;;2.28;0.70;;;;;;;;;;4401954;32;20402;-51
2022/01/15 09:41:16;;;;;;;5.30;0.98;;;;;;;;;;4403726;32;20026;-51
2022/01/15 09:43:45;;;;;;;3.55;0.80;;;;;;;;;;4403260;32;20343;-50
2022/01/15 09:46:14;;;;;;;4.28;0.95;;;;;;;;;;4406850;32;20373;-53
2022/01/15 09:48:44;;;;;;;4.62;0.80;;;;;;;;;;4412910;32;20042;-51
2022/01/15 09:51:12;;;;;;;5.47;1.10;;;;;;;;;;4409229;32;20085;-51
2022/01/15 09:53:42;;;;;;;4.50;1.17;;;;;;;;;;4407427;32;20065;-50
2022/01/15 09:56:10;;;;;;;7.47;1.10;;;;;;;;;;4415740;32;20417;-49
2022/01/15 09:58:38;;;;;;;5.82;1.27;;;;;;;;;;4413449;32;20145;-49
2022/01/15 10:01:07;;;;;;;4.32;0.95;;;;;;;;;;4409106;32;20057;-51
2022/01/15 10:03:36;;;;;;;3.95;0.73;;;;;;;;;;4415496;32;20027;-51
2022/01/15 10:06:05;;;;;;;4.72;1.25;;;;;;;;;;4416211;32;20060;-51
2022/01/15 10:08:33;;;;;;;5.40;1.20;;;;;;;;;;4416554;32;20393;-53
2022/01/15 10:11:07;;;;;;;6.75;1.00;;;;;;;;;;4409897;32;20377;-51
2022/01/15 10:13:42;;;;;;;6.97;1.00;;;;;;;;;;4402943;32;20095;-49
2022/01/15 10:16:13;;;;;;;7.28;1.08;;;;;;;;;;4408277;32;20042;-50
2022/01/15 10:18:44;;;;;;;7.22;1.17;;;;;;;;;;4411702;32;20038;-53
2022/01/15 10:21:15;;;;;;;7.15;1.20;;;;;;;;;;4405369;32;20085;-53
2022/01/15 10:23:54;;;;;;;5.53;1.27;;;;;;;;;;4412744;32;20051;-53
2022/01/15 10:26:23;;;;;;;7.95;1.40;;;;;;;;;;4412260;32;20338;-50
2022/01/15 10:28:59;;;;;;;6.60;1.12;;;;;;;;;;4405542;32;20437;-50
2022/01/15 10:31:30;;;;;;;10.05;1.40;;;;;;;;;;4412187;32;20043;-49
2022/01/15 10:33:59;;;;;;;4.37;1.20;;;;;;;;;;4413090;32;20464;-52
2022/01/15 10:36:32;;;;;;;4.57;1.08;;;;;;;;;;4413873;32;20037;-51
2022/01/15 10:39:16;;;;;;;4.03;1.02;;;;;;;;;;4405402;32;20099;-49
2022/01/15 10:41:49;;;;;;;6.00;1.30;;;;;;;;;;4410387;32;20042;-50
2022/01/15 10:44:33;;;;;;;9.80;1.40;;;;;;;;;;4407223;32;20055;-53
2022/01/15 10:47:05;;;;;;;11.88;1.20;;;;;;;;;;4407528;32;23763;-51
2022/01/15 10:49:33;;;;;;;16.70;1.75;;;;;;;;;;4411990;32;20487;-50
2022/01/15 10:52:09;;;;;;;13.27;1.90;;;;;;;;;;4409269;32;20046;-50
2022/01/15 10:54:58;;;;;;;10.32;1.65;;;;;;;;;;4410060;32;20022;-50
2022/01/15 10:57:35;;;;;;;17.17;2.00;;;;;;;;;;4417330;32;20048;-49
2022/01/15 11:00:07;;;;;;;17.27;2.15;;;;;;;;;;4408672;32;20058;-49
2022/01/15 11:02:35;;;;;;;16.70;1.92;;;;;;;;;;4410976;32;20076;-49
2022/01/15 11:05:19;;;;;;;18.15;1.80;;;;;;;;;;4410189;32;20042;-52
2022/01/15 11:07:47;;;;;;;16.95;2.15;;;;;;;;;;4410417;32;20535;-48
2022/01/15 11:10:16;;;;;;;8.52;1.73;;;;;;;;;;4399965;32;20088;-50
2022/01/15 11:12:44;;;;;;;12.73;1.45;;;;;;;;;;4414911;32;20031;-49
2022/01/15 11:15:13;;;;;;;12.93;1.73;;;;;;;;;;4411393;32;20053;-51
2022/01/15 11:17:42;;;;;;;7.95;1.90;;;;;;;;;;4411981;32;20038;-51
2022/01/15 11:20:11;;;;;;;17.95;2.10;;;;;;;;;;4404218;32;20061;-49
2022/01/15 11:22:43;;;;;;;15.82;2.00;;;;;;;;;;4407063;32;20065;-49
2022/01/15 11:25:13;;;;;;;26.65;2.80;;;;;;;;;;4400173;32;20067;-50
2022/01/15 11:27:42;;;;;;;12.95;2.00;;;;;;;;;;4409072;32;20042;-49
2022/01/15 11:30:12;;;;;;;15.82;1.60;;;;;;;;;;4410213;32;20429;-49
2022/01/15 11:32:43;;;;;;;11.88;1.85;;;;;;;;;;4409242;32;20667;-50
2022/01/15 11:35:13;;;;;;;18.75;2.10;;;;;;;;;;4408171;32;20057;-51
2022/01/15 11:37:56;;;;;;;13.60;1.70;;;;;;;;;;4413287;32;20083;-53
2022/01/15 11:40:40;;;;;;;13.77;1.70;;;;;;;;;;4406161;32;20087;-54
2022/01/15 11:43:27;;;;;;;15.45;2.30;;;;;;;;;;4404748;32;20195;-52
2022/01/15 11:45:57;;;;;;;10.52;2.00;;;;;;;;;;4403744;32;20046;-51
2022/01/15 11:48:30;;;;;;;14.00;2.25;;;;;;;;;;4407446;32;20381;-50
2022/01/15 11:51:18;;;;;;;14.13;1.98;;;;;;;;;;4408199;32;20144;-50
2022/01/15 11:53:47;;;;;;;13.15;1.60;;;;;;;;;;4404422;32;20057;-51
2022/01/15 11:56:19;;;;;;;10.30;1.58;;;;;;;;;;4405523;32;20077;-49
2022/01/15 11:58:48;;;;;;;9.88;1.90;;;;;;;;;;4402730;32;20463;-50
2022/01/15 12:01:43;;;;;;;12.65;1.30;;;;;;;;;;4398133;32;20088;-49
2022/01/15 12:04:11;;;;;;;;;;;;;;;;;;4402589;32;20373;-51
2022/01/15 12:06:58;;;;;;;9.60;1.87;;;;;;;;;;4412323;32;19997;-50
2022/01/15 12:09:34;;;;;;;8.18;1.65;;;;;;;;;;4403634;32;20034;-50
2022/01/15 12:12:24;;;;;;;9.77;1.98;;;;;;;;;;4406499;32;20065;-50
2022/01/15 12:14:56;;;;;;;6.87;1.60;;;;;;;;;;4409048;32;20570;-50
2022/01/15 12:17:31;;;;;;;11.43;1.48;;;;;;;;;;4409621;32;20098;-50
2022/01/15 12:20:00;;;;;;;8.52;1.90;;;;;;;;;;4415266;32;20058;-51
2022/01/15 12:22:40;;;;;;;11.90;1.70;;;;;;;;;;4411958;32;20386;-50
2022/01/15 12:25:12;;;;;;;8.55;1.45;;;;;;;;;;4406970;32;20424;-52
2022/01/15 12:27:41;;;;;;;10.13;1.87;;;;;;;;;;4411240;32;20039;-51
2022/01/15 12:30:13;;;;;;;9.35;1.60;;;;;;;;;;4411190;32;20438;-52
2022/01/15 12:32:43;;;;;;;10.10;1.80;;;;;;;;;;4410616;32;20042;-50
2022/01/15 12:35:16;;;;;;;11.25;2.03;;;;;;;;;;4411122;32;20502;-52
2022/01/15 12:37:51;;;;;;;10.10;1.45;;;;;;;;;;4409447;32;20135;-52
2022/01/15 12:40:22;;;;;;;13.82;1.58;;;;;;;;;;4418403;32;20042;-51
2022/01/15 12:42:57;;;;;;;7.28;1.35;;;;;;;;;;4414467;32;20082;-49
2022/01/15 12:45:26;;;;;;;7.93;1.60;;;;;;;;;;4405330;32;20066;-50
2022/01/15 12:47:55;;;;;;;9.82;1.35;;;;;;;;;;4408877;32;20365;-53
2022/01/15 12:50:24;;;;;;;7.30;1.45;;;;;;;;;;4406780;32;20393;-51
2022/01/15 12:53:04;;;;;;;12.43;1.30;;;;;;;;;;4412673;32;20095;-50
2022/01/15 12:55:33;;;;;;;13.65;1.90;;;;;;;;;;4406840;32;20022;-52
2022/01/15 12:58:06;;;;;;;9.25;1.52;;;;;;;;;;4410670;32;20046;-53
2022/01/15 13:00:35;;;;;;;7.95;1.33;;;;;;;;;;4407781;32;20084;-52
2022/01/15 13:03:06;;;;;;;10.27;1.62;;;;;;;;;;4407273;32;20322;-49
2022/01/15 13:05:45;;;;;;;8.75;1.85;;;;;;;;;;4406937;32;20421;-50
2022/01/15 13:08:15;;;;;;;9.50;1.60;;;;;;;;;;4409604;32;20092;-50
2022/01/15 13:13:19;;;;;;;10.93;1.60;;;;;;;;;;4405711;32;20086;-52
2022/01/15 13:15:49;;;;;;;12.43;1.67;;;;;;;;;;4404743;32;20050;-52
2022/01/15 13:18:18;;;;;;;8.40;2.00;;;;;;;;;;4402427;32;20030;-52
2022/01/15 13:20:50;;;;;;;8.65;1.42;;;;;;;;;;4407405;32;20032;-50
2022/01/15 13:23:20;;;;;;;8.93;2.05;;;;;;;;;;4410792;32;20073;-53
2022/01/15 13:25:49;;;;;;;7.03;1.80;;;;;;;;;;4411819;32;20420;-49
2022/01/15 13:28:18;;;;;;;10.20;1.23;;;;;;;;;;4413555;32;20030;-50
2022/01/15 13:30:46;;;;;;;10.32;1.70;;;;;;;;;;4411293;32;20081;-52
2022/01/15 13:33:15;;;;;;;15.38;2.03;;;;;;;;;;4415671;32;20046;-51
2022/01/15 13:35:46;;;;;;;11.73;1.90;;;;;;;;;;4414078;32;20055;-50
2022/01/15 13:38:16;;;;;;;10.57;1.70;;;;;;;;;;4409582;32;20045;-50
2022/01/15 13:40:47;;;;;;;10.02;1.52;;;;;;;;;;4416924;32;20068;-50
2022/01/15 13:43:34;;;;;;;9.43;1.75;;;;;;;;;;4409251;32;20034;-50
2022/01/15 13:46:14;;;;;;;10.70;1.55;;;;;;;;;;4417413;32;20030;-51
2022/01/15 13:48:43;;;;;;;9.75;1.60;;;;;;;;;;4413385;32;20373;-50
2022/01/15 13:54:08;;;;;;;8.38;1.60;;;;;;;;;;4409776;32;20027;-52
2022/01/15 13:56:38;;;;;;;7.25;1.42;;;;;;;;;;4413610;32;20049;-51
2022/01/15 13:59:06;;;;;;;11.35;1.92;;;;;;;;;;4408721;32;20038;-51
2022/01/15 14:01:36;;;;;;;15.75;2.17;;;;;;;;;;4406421;32;20092;-54
2022/01/15 14:04:24;;;;;;;8.63;1.67;;;;;;;;;;4413214;32;20023;-54
2022/01/15 14:06:53;;;;;;;8.95;1.65;;;;;;;;;;4402921;32;20090;-54
2022/01/15 14:09:22;;;;;;;9.65;1.90;;;;;;;;;;4404178;32;20081;-51
2022/01/15 14:11:56;;;;;;;10.60;1.70;;;;;;;;;;4409544;32;20086;-50
2022/01/15 14:14:25;;;;;;;10.30;1.33;;;;;;;;;;4415928;32;20360;-53
2022/01/15 14:16:55;;;;;;;8.57;1.55;;;;;;;;;;4410973;32;20052;-51
2022/01/15 14:19:39;;;;;;;16.50;2.00;;;;;;;;;;4416286;32;20083;-53
2022/01/15 14:22:21;;;;;;;13.57;1.80;;;;;;;;;;4406940;32;20426;-50
2022/01/15 14:24:50;;;;;;;15.15;1.77;;;;;;;;;;4414561;32;20456;-50
2022/01/15 14:27:20;;;;;;;8.57;1.50;;;;;;;;;;4417143;32;20062;-54
2022/01/15 14:29:53;;;;;;;12.15;2.15;;;;;;;;;;4412167;32;20434;-53
2022/01/15 14:32:23;;;;;;;8.82;1.48;;;;;;;;;;4410838;32;20477;-52
2022/01/15 14:34:56;;;;;;;8.38;1.60;;;;;;;;;;4413672;32;20090;-51
2022/01/15 14:37:28;;;;;;;13.35;2.08;;;;;;;;;;4412541;32;20041;-48
2022/01/15 14:39:57;;;;;;;11.48;1.95;;;;;;;;;;4404155;32;20059;-48
2022/01/15 14:42:26;;;;;;;15.05;1.77;;;;;;;;;;4409319;32;20039;-48
2022/01/15 14:44:56;;;;;;;14.20;2.25;;;;;;;;;;4408883;32;20050;-49
2022/01/15 14:47:25;;;;;;;11.98;1.92;;;;;;;;;;4410290;32;20080;-51
2022/01/15 14:49:53;;;;;;;13.05;1.70;;;;;;;;;;4403379;32;20426;-49
2022/01/15 14:52:23;;;;;;;10.50;1.48;;;;;;;;;;4406221;32;20038;-48
2022/01/15 14:54:51;;;;;;;17.17;2.00;;;;;;;;;;4415326;32;20126;-52
2022/01/15 14:57:19;;;;;;;8.48;1.80;;;;;;;;;;4408172;32;20098;-50
2022/01/15 14:59:48;;;;;;;9.35;2.15;;;;;;;;;;4412683;32;20039;-52
2022/01/15 15:02:17;;;;;;;10.95;1.65;;;;;;;;;;4409017;32;20026;-48
2022/01/15 15:04:45;;;;;;;14.23;2.00;;;;;;;;;;4415542;32;20026;-49
2022/01/15 15:07:13;;;;;;;13.32;1.83;;;;;;;;;;4405757;32;20051;-49
2022/01/15 15:09:42;;;;;;;10.40;2.00;;;;;;;;;;4413598;32;20087;-50
2022/01/15 15:12:11;;;;;;;12.23;2.10;;;;;;;;;;4404905;32;20074;-52
2022/01/15 15:14:40;;;;;;;12.93;2.15;;;;;;;;;;4408929;32;20059;-50
2022/01/15 15:17:09;;;;;;;8.60;1.85;;;;;;;;;;4408075;32;20382;-53
2022/01/15 15:19:39;;;;;;;11.48;2.17;;;;;;;;;;4408882;32;20094;-50
2022/01/15 15:22:07;;;;;;;9.48;1.83;;;;;;;;;;4406769;32;20035;-51
2022/01/15 15:24:36;;;;;;;15.77;2.20;;;;;;;;;;4415096;32;20046;-52
2022/01/15 15:27:04;;;;;;;17.55;2.35;;;;;;;;;;4414013;32;20323;-50
2022/01/15 15:29:33;;;;;;;14.05;2.20;;;;;;;;;;4403532;32;20365;-52